메인 페이지
METAR-TAF:

METAR-TAF

공항 :

버뮤다, 버뮤다

위도: 32-22N, 경도: 064-41W, 고도: 6m

현재 날씨관측

예보는 21분 전, 16:55시(UTC)에 발표되었습니다.
18kt
온도 23°C
습도 83%
기압 1019 hPa
시정 10km 이상
고도 1800ft 상공 구름 보통
고도 16000ft 상공 구름 보통
고도 30000ft 상공 구름 많음

METAR: TXKF 141655Z 17018KT 9999 SCT018 SCT160 BKN300 23/20 Q1019

시각: 13:16 (17:16 UTC)

예보

예보는 5 시간 46분 전, 11:30시(UTC)에 발표되었습니다.
예보 대상 시간: 14일 12시부터 15일 12시까지 (UTC)
23kt
시정 10km 이상
고도 2000ft 상공 구름 보통
고도 30000ft 상공 구름 많음
확률 40% :
일시적
15일 06시부터 15일 12시까지 (UTC)
25kt, 순간 최대 풍속 40kt
시정: 3200m
고도 900ft 상공 구름 많음
고도 22000ft 상공 흐림
소나기
확률 40% :
일시적
15일 09시부터 15일 12시까지 (UTC)
남남서30kt, 순간 최대 풍속 45kt
시정: 1600m
고도 800ft 상공 구름 많음, 적란운.
뇌우, 비

TAF: TXKF 141130Z 1412/1512 17023KT 9999 SCT020 BKN300 PROB40 TEMPO 1506/1512 18025G40KT 3200 SHRA BKN009 OVC220 PROB40 TEMPO 1509/1512 20030G45KT 1600 TSRA BKN008CB

4,000개 이상의 공항 관측 자료 및 예보 (METAR 및 TAF 보고).

지도상에서 검색 가능한 기상관측소가 노란 점과 빨간 점으로 표시되어 있습니다.

기상관측소 명을 보려면 표시 위로 마우스를 이동하세요.

날씨 관측과 예보를 보려면 클릭하세요.

지도 변경 : 확대하려면 엑스 표시가 있는 녹색 버튼, 축소하려면 빼기 표시가 있는 녹색 버튼, 다음 페이지의 지도를 보려면 녹색 화살표를 클릭하세요.


METAR-TAF: